Time;durP1;ratioP1;P1;durP2;ratioP2;P2;SDS_P1;SDS_P2;PMS_P1;PMS_P2;Temp;Humidity;BMP_temperature;BMP_pressure;BME280_temperature;BME280_humidity;BME280_pressure;Samples;Min_cycle;Max_cycle;Signal;HPM_P1;HPM_P2
2020/12/10 00:00:57;;;;;;;45.95;23.58;;;2.60;99.90;;;;;;4210193;28;20399;-81
2020/12/10 00:02:59;;;;;;;46.30;24.17;;;2.60;99.90;;;;;;4202490;28;20048;-81
2020/12/10 00:04:59;;;;;;;42.92;24.10;;;2.60;99.90;;;;;;4206360;28;20571;-81
2020/12/10 00:07:00;;;;;;;46.83;24.38;;;2.60;99.90;;;;;;4209701;28;20056;-81
2020/12/10 00:09:00;;;;;;;44.42;23.55;;;2.60;99.90;;;;;;4193139;28;20020;-81
2020/12/10 00:11:01;;;;;;;49.80;24.13;;;2.60;99.90;;;;;;4211511;28;20475;-80
2020/12/10 00:13:02;;;;;;;45.08;24.17;;;2.60;99.90;;;;;;4185901;28;20025;-80
2020/12/10 00:15:02;;;;;;;46.22;22.95;;;2.60;99.90;;;;;;4205062;28;20544;-80
2020/12/10 00:17:03;;;;;;;48.70;24.42;;;2.60;99.90;;;;;;4198123;28;20017;-80
2020/12/10 00:19:04;;;;;;;42.25;22.52;;;2.60;99.90;;;;;;4209759;28;20103;-81
2020/12/10 00:21:04;;;;;;;44.15;21.90;;;2.60;99.90;;;;;;4211257;28;20013;-81
2020/12/10 00:23:05;;;;;;;43.97;22.52;;;2.60;99.90;;;;;;4211561;28;20605;-81
2020/12/10 00:25:06;;;;;;;44.17;21.67;;;2.60;99.90;;;;;;4191311;28;20024;-80
2020/12/10 00:27:07;;;;;;;46.78;22.55;;;2.60;99.90;;;;;;4211160;28;20111;-80
2020/12/10 00:29:08;;;;;;;43.40;21.55;;;2.60;99.90;;;;;;4200882;28;20483;-80
2020/12/10 00:31:09;;;;;;;38.60;19.67;;;2.60;99.90;;;;;;4209055;28;20023;-80
2020/12/10 00:33:10;;;;;;;39.25;22.50;;;2.50;99.90;;;;;;4194592;28;20736;-80
2020/12/10 00:35:11;;;;;;;46.08;22.50;;;2.50;99.90;;;;;;4213214;28;20042;-80
2020/12/10 00:37:12;;;;;;;42.15;21.83;;;2.50;99.90;;;;;;4212348;28;20021;-81
2020/12/10 00:39:13;;;;;;;44.05;23.63;;;2.50;99.90;;;;;;4208949;28;20107;-80
2020/12/10 00:41:14;;;;;;;39.90;21.50;;;2.50;99.90;;;;;;4215804;28;20357;-80
2020/12/10 00:43:15;;;;;;;40.72;20.27;;;2.50;99.90;;;;;;4197469;28;20060;-81
2020/12/10 00:45:16;;;;;;;38.15;19.75;;;2.40;99.90;;;;;;4198129;28;20024;-81
2020/12/10 00:47:18;;;;;;;44.85;21.83;;;2.40;99.90;;;;;;4215555;28;20107;-80
2020/12/10 00:49:20;;;;;;;39.15;20.25;;;2.30;99.90;;;;;;4207656;28;20082;-80
2020/12/10 00:51:21;;;;;;;39.42;21.27;;;2.30;99.90;;;;;;4210649;28;20427;-80
2020/12/10 00:53:22;;;;;;;42.10;22.58;;;2.20;99.90;;;;;;4216093;28;20032;-80
2020/12/10 00:55:22;;;;;;;42.15;22.90;;;2.20;99.90;;;;;;4215673;28;20156;-80
2020/12/10 00:57:23;;;;;;;47.55;23.20;;;2.10;99.90;;;;;;4215633;28;20031;-80
2020/12/10 00:59:23;;;;;;;49.53;23.23;;;2.00;99.90;;;;;;4216167;28;20385;-80
2020/12/10 01:01:24;;;;;;;44.00;23.30;;;2.00;99.90;;;;;;4215748;28;20555;-80
2020/12/10 01:03:24;;;;;;;48.95;22.30;;;1.80;99.90;;;;;;4197614;28;20070;-81
2020/12/10 01:05:26;;;;;;;53.03;23.73;;;1.80;99.90;;;;;;4196602;28;20669;-82
2020/12/10 01:07:26;;;;;;;52.80;22.30;;;1.70;99.90;;;;;;4184954;28;20017;-81
2020/12/10 01:09:27;;;;;;;57.30;24.90;;;1.70;99.90;;;;;;4215640;28;20447;-80
2020/12/10 01:11:28;;;;;;;46.50;22.90;;;1.70;99.90;;;;;;4215707;28;20059;-81
2020/12/10 01:13:29;;;;;;;46.33;23.77;;;1.60;99.90;;;;;;4215238;28;20032;-81
2020/12/10 01:15:30;;;;;;;48.45;23.25;;;1.60;99.90;;;;;;4213900;28;20115;-81
2020/12/10 01:17:30;;;;;;;51.67;25.05;;;1.50;99.90;;;;;;4195939;28;20072;-81
2020/12/10 01:19:31;;;;;;;60.15;25.35;;;1.40;99.90;;;;;;4195858;28;20032;-81
2020/12/10 01:21:33;;;;;;;50.22;24.63;;;1.30;99.90;;;;;;4213466;28;20028;-81
2020/12/10 01:23:33;;;;;;;53.22;24.35;;;1.20;99.90;;;;;;4195417;28;20027;-81
2020/12/10 01:25:34;;;;;;;57.42;23.98;;;1.20;99.90;;;;;;4195859;28;20029;-81
2020/12/10 01:27:35;;;;;;;55.90;25.92;;;1.20;99.90;;;;;;4180051;28;20119;-81
2020/12/10 01:29:35;;;;;;;61.25;26.02;;;1.10;99.90;;;;;;4193645;28;20074;-81
2020/12/10 01:31:36;;;;;;;58.88;25.00;;;1.10;99.90;;;;;;4215403;28;21402;-81
2020/12/10 01:33:36;;;;;;;65.70;25.40;;;1.00;99.90;;;;;;4215062;28;20379;-81
2020/12/10 01:35:37;;;;;;;63.75;26.70;;;0.90;99.90;;;;;;4207509;28;20039;-81
2020/12/10 01:37:38;;;;;;;57.83;26.52;;;0.90;99.90;;;;;;4201369;28;20022;-80
2020/12/10 01:39:38;;;;;;;61.67;25.73;;;0.80;99.90;;;;;;4211276;28;20471;-80
2020/12/10 01:41:39;;;;;;;59.42;27.40;;;0.70;99.90;;;;;;4196912;28;20082;-80
2020/12/10 01:43:40;;;;;;;61.78;26.90;;;0.70;99.90;;;;;;4197280;28;20063;-81
2020/12/10 01:45:41;;;;;;;63.15;27.33;;;0.70;99.90;;;;;;4214559;28;20032;-81
2020/12/10 01:47:42;;;;;;;65.18;25.65;;;0.60;99.90;;;;;;4215012;28;20032;-81
2020/12/10 01:49:42;;;;;;;67.80;29.50;;;0.60;99.90;;;;;;4215006;28;20122;-81
2020/12/10 01:51:43;;;;;;;64.68;27.25;;;0.60;99.90;;;;;;4214765;28;20325;-81
2020/12/10 01:53:44;;;;;;;61.35;28.60;;;0.60;99.90;;;;;;4214956;28;20035;-81
2020/12/10 01:55:45;;;;;;;64.00;29.27;;;0.50;99.90;;;;;;4214867;28;20111;-81
2020/12/10 01:57:46;;;;;;;59.95;28.58;;;0.60;99.90;;;;;;4214800;28;20032;-81
2020/12/10 01:59:48;;;;;;;64.65;27.17;;;0.50;99.90;;;;;;4214614;28;20123;-81
2020/12/10 02:01:49;;;;;;;63.08;27.10;;;0.50;99.90;;;;;;4196848;28;20031;-81
2020/12/10 02:03:50;;;;;;;75.20;30.60;;;0.40;99.90;;;;;;4214493;28;20028;-81
2020/12/10 02:05:50;;;;;;;72.28;28.70;;;0.40;99.90;;;;;;4214806;28;20460;-81
2020/12/10 02:07:51;;;;;;;65.20;27.83;;;0.30;99.90;;;;;;4214232;28;20067;-81
2020/12/10 02:09:52;;;;;;;67.22;28.98;;;0.20;99.90;;;;;;4214844;28;20028;-81
2020/12/10 02:11:53;;;;;;;67.55;28.10;;;0.20;99.90;;;;;;4196554;28;20508;-80
2020/12/10 02:13:53;;;;;;;70.57;27.60;;;0.20;99.90;;;;;;4196762;28;20056;-81
2020/12/10 02:15:54;;;;;;;70.05;28.52;;;0.20;99.90;;;;;;4193107;28;20116;-80
2020/12/10 02:17:55;;;;;;;76.18;29.17;;;0.20;99.90;;;;;;4185954;28;20428;-81
2020/12/10 02:19:55;;;;;;;65.72;28.83;;;0.20;99.90;;;;;;4214428;28;20429;-80
2020/12/10 02:21:56;;;;;;;68.75;29.83;;;0.20;99.90;;;;;;4196578;28;20037;-81
2020/12/10 02:23:57;;;;;;;64.88;29.65;;;0.10;99.90;;;;;;4196716;28;20369;-80
2020/12/10 02:25:58;;;;;;;65.97;31.25;;;0.10;99.90;;;;;;4211901;28;20032;-80
2020/12/10 02:28:03;;;;;;;68.38;30.70;;;0.10;99.90;;;;;;4195472;28;20091;-80
2020/12/10 02:30:04;;;;;;;67.40;29.13;;;0.10;99.90;;;;;;4195676;28;20040;-79
2020/12/10 02:32:05;;;;;;;72.57;29.27;;;0.00;99.90;;;;;;4196100;28;20029;-79
2020/12/10 02:34:07;;;;;;;64.53;29.15;;;0.00;99.90;;;;;;4196322;28;20026;-79
2020/12/10 02:36:08;;;;;;;69.43;32.20;;;0.00;99.90;;;;;;4214444;28;20024;-80
2020/12/10 02:38:10;;;;;;;66.50;30.67;;;0.00;99.90;;;;;;4202964;28;20070;-80
2020/12/10 02:40:11;;;;;;;70.35;29.33;;;-0.10;99.90;;;;;;4214440;28;20571;-80
2020/12/10 02:42:11;;;;;;;74.10;29.92;;;-0.10;99.90;;;;;;4195820;28;20040;-79
2020/12/10 02:44:12;;;;;;;69.20;27.67;;;-0.10;99.90;;;;;;4213840;28;20032;-73
2020/12/10 02:46:13;;;;;;;66.80;30.42;;;-0.20;99.90;;;;;;4213893;28;20054;-74
2020/12/10 02:48:14;;;;;;;69.38;30.60;;;-0.20;99.90;;;;;;4205844;28;20111;-74
2020/12/10 02:50:15;;;;;;;74.82;30.90;;;-0.20;99.90;;;;;;4195178;28;20020;-74
2020/12/10 02:52:16;;;;;;;78.43;30.90;;;-0.20;99.90;;;;;;4213708;28;20048;-74
2020/12/10 02:54:17;;;;;;;76.90;32.45;;;-0.20;99.90;;;;;;4213930;28;20433;-74
2020/12/10 02:56:17;;;;;;;78.00;30.80;;;-0.20;99.90;;;;;;4195636;28;20405;-74
2020/12/10 02:58:18;;;;;;;77.43;31.83;;;-0.30;99.90;;;;;;4212773;28;20059;-74
2020/12/10 03:00:18;;;;;;;80.43;30.48;;;-0.30;99.90;;;;;;4213546;28;20364;-74
2020/12/10 03:02:19;;;;;;;76.25;32.58;;;-0.30;99.90;;;;;;4213902;28;20028;-74
2020/12/10 03:04:20;;;;;;;76.97;32.15;;;-0.40;99.90;;;;;;4195737;28;20036;-74
2020/12/10 03:06:20;;;;;;;73.65;29.05;;;-0.50;99.90;;;;;;4213407;28;20028;-73
2020/12/10 03:08:21;;;;;;;68.82;28.75;;;-0.50;99.90;;;;;;4213838;28;20063;-74
2020/12/10 03:10:21;;;;;;;76.32;31.42;;;-0.40;99.90;;;;;;4213079;28;20032;-75
2020/12/10 03:12:22;;;;;;;76.15;30.60;;;-0.40;99.90;;;;;;4213721;28;20502;-74
2020/12/10 03:14:23;;;;;;;75.88;30.92;;;-0.50;99.90;;;;;;4195704;28;20048;-74
2020/12/10 03:16:23;;;;;;;79.38;31.63;;;-0.50;99.90;;;;;;4213467;28;20031;-73
2020/12/10 03:18:25;;;;;;;79.32;31.85;;;-0.60;99.90;;;;;;4195248;28;20029;-74
2020/12/10 03:20:26;;;;;;;78.30;29.58;;;-0.60;99.90;;;;;;4195324;28;20033;-74
2020/12/10 03:22:26;;;;;;;77.88;32.10;;;-0.50;99.90;;;;;;4195015;28;20024;-74
2020/12/10 03:24:27;;;;;;;80.20;31.52;;;-0.50;99.90;;;;;;4213532;28;20478;-74
2020/12/10 03:26:27;;;;;;;77.28;33.35;;;-0.50;99.90;;;;;;4213576;28;20111;-75
2020/12/10 03:28:28;;;;;;;90.72;32.65;;;-0.40;99.90;;;;;;4213457;28;20053;-74
2020/12/10 03:30:29;;;;;;;83.25;30.45;;;-0.40;99.90;;;;;;4195383;28;20058;-74
2020/12/10 03:32:29;;;;;;;78.80;31.48;;;-0.40;99.90;;;;;;4194916;28;20021;-74
2020/12/10 03:34:31;;;;;;;78.75;32.60;;;-0.40;99.90;;;;;;4195118;28;20121;-74
2020/12/10 03:36:47;;;;;;;88.38;34.38;;;-0.40;99.90;;;;;;4213383;28;20482;-74
2020/12/10 03:38:48;;;;;;;82.50;34.58;;;-0.40;99.90;;;;;;4196412;28;20116;-74
2020/12/10 03:40:49;;;;;;;89.75;34.80;;;-0.40;99.90;;;;;;4210392;28;20383;-75
2020/12/10 03:42:49;;;;;;;92.20;37.03;;;-0.40;99.90;;;;;;4212540;28;20083;-74
2020/12/10 03:44:50;;;;;;;104.63;34.78;;;-0.40;99.90;;;;;;4212916;28;20058;-74
2020/12/10 03:46:50;;;;;;;87.75;34.90;;;-0.50;99.90;;;;;;4212918;28;20120;-73
2020/12/10 03:48:52;;;;;;;92.18;36.10;;;-0.50;99.90;;;;;;4195130;28;20047;-74
2020/12/10 03:50:52;;;;;;;95.32;37.95;;;-0.60;99.90;;;;;;4213005;28;20032;-74
2020/12/10 03:52:53;;;;;;;84.88;36.28;;;-0.60;99.90;;;;;;4194168;28;20420;-75
2020/12/10 03:54:54;;;;;;;104.82;39.80;;;-0.70;99.90;;;;;;4212887;28;20042;-74
2020/12/10 03:56:55;;;;;;;92.40;37.85;;;-0.60;99.90;;;;;;4194681;28;20039;-74
2020/12/10 03:58:56;;;;;;;99.32;38.60;;;-0.70;99.90;;;;;;4212917;28;20028;-76
2020/12/10 04:00:56;;;;;;;111.57;39.20;;;-0.70;99.90;;;;;;4212808;28;20035;-74
2020/12/10 04:02:57;;;;;;;107.95;40.15;;;-0.70;99.90;;;;;;4195218;28;20426;-74
2020/12/10 04:04:58;;;;;;;108.80;40.50;;;-0.70;99.90;;;;;;4211314;28;20455;-75
2020/12/10 04:06:58;;;;;;;103.93;38.83;;;-0.80;99.90;;;;;;4193345;28;20495;-74
2020/12/10 04:09:00;;;;;;;108.47;39.63;;;-0.80;99.90;;;;;;4193161;28;20051;-74
2020/12/10 04:11:01;;;;;;;101.75;39.92;;;-0.80;99.90;;;;;;4192382;28;20021;-74
2020/12/10 04:13:01;;;;;;;105.15;39.42;;;-0.90;99.90;;;;;;4211000;28;20035;-74
2020/12/10 04:15:02;;;;;;;110.15;38.78;;;-0.90;99.90;;;;;;4193131;28;20071;-74
2020/12/10 04:17:03;;;;;;;95.45;37.63;;;-1.00;99.90;;;;;;4211183;28;20028;-74
2020/12/10 04:19:04;;;;;;;100.50;38.88;;;-1.00;99.90;;;;;;4211228;28;20021;-74
2020/12/10 04:21:06;;;;;;;105.95;38.00;;;-1.10;99.90;;;;;;4211149;28;20544;-74
2020/12/10 04:23:07;;;;;;;97.25;35.60;;;-1.20;99.90;;;;;;4211142;28;20028;-75
2020/12/10 04:25:08;;;;;;;87.88;38.67;;;-1.20;99.90;;;;;;4210954;28;20379;-74
2020/12/10 04:27:08;;;;;;;96.45;34.75;;;-1.20;99.90;;;;;;4207341;28;20372;-74
2020/12/10 04:29:13;;;;;;;100.97;35.80;;;-1.30;99.90;;;;;;4198979;28;20016;-74
2020/12/10 04:31:16;;;;;;;90.45;34.90;;;-1.40;99.90;;;;;;4210835;28;20024;-74
2020/12/10 04:33:16;;;;;;;97.13;34.38;;;-1.40;99.90;;;;;;4211136;28;20031;-74
2020/12/10 04:35:17;;;;;;;94.10;35.00;;;-1.30;99.90;;;;;;4212088;28;20429;-74
2020/12/10 04:37:18;;;;;;;98.35;36.95;;;-1.30;99.90;;;;;;4197198;28;20090;-74
2020/12/10 04:39:18;;;;;;;110.13;35.78;;;-1.30;99.90;;;;;;4212222;28;20039;-74
2020/12/10 04:41:19;;;;;;;96.40;35.75;;;-1.30;99.90;;;;;;4194631;28;20041;-73
2020/12/10 04:43:26;;;;;;;98.78;37.45;;;-1.30;99.90;;;;;;4212406;28;20059;-74
2020/12/10 04:45:27;;;;;;;101.28;36.78;;;-1.30;99.90;;;;;;4211195;28;20109;-75
2020/12/10 04:47:31;;;;;;;96.57;38.00;;;-1.30;99.90;;;;;;4212286;28;20028;-74
2020/12/10 04:49:32;;;;;;;104.20;39.20;;;-1.30;99.90;;;;;;4194399;28;20032;-73
2020/12/10 04:51:34;;;;;;;105.97;36.80;;;-1.30;99.90;;;;;;4212480;28;20047;-74
2020/12/10 04:53:34;;;;;;;88.60;33.80;;;-1.40;99.90;;;;;;4194234;28;20024;-74
2020/12/10 04:55:35;;;;;;;90.90;35.25;;;-1.40;99.90;;;;;;4212023;28;20038;-74
2020/12/10 04:57:39;;;;;;;97.57;36.00;;;-1.40;99.90;;;;;;4210536;28;20085;-74
2020/12/10 04:59:39;;;;;;;97.25;36.28;;;-1.40;99.90;;;;;;4210462;28;20028;-74
2020/12/10 05:01:40;;;;;;;90.68;35.08;;;-1.40;99.90;;;;;;4210691;28;20039;-73
2020/12/10 05:03:45;;;;;;;104.75;35.10;;;-1.40;99.90;;;;;;4193065;28;20383;-74
2020/12/10 05:05:45;;;;;;;99.40;37.30;;;-1.40;99.90;;;;;;4210889;28;20028;-74
2020/12/10 05:07:46;;;;;;;86.18;33.30;;;-1.40;99.90;;;;;;4210825;28;20135;-74
2020/12/10 05:09:57;;;;;;;86.75;33.25;;;-1.50;99.90;;;;;;4210909;28;20390;-74
2020/12/10 05:11:57;;;;;;;91.28;33.22;;;-1.50;99.90;;;;;;4197503;28;20024;-73
2020/12/10 05:13:58;;;;;;;90.63;33.20;;;-1.50;99.90;;;;;;4192787;28;20086;-74
2020/12/10 05:15:58;;;;;;;92.00;34.13;;;-1.50;99.90;;;;;;4210658;28;20105;-74
2020/12/10 05:18:08;;;;;;;93.90;33.47;;;-1.40;99.90;;;;;;4193308;28;20037;-74
2020/12/10 05:20:08;;;;;;;94.80;33.22;;;-1.40;99.90;;;;;;4210265;28;20066;-74
2020/12/10 05:22:10;;;;;;;93.90;34.45;;;-1.40;99.90;;;;;;4213091;28;20368;-74
2020/12/10 05:24:20;;;;;;;86.32;34.88;;;-1.40;99.90;;;;;;4215239;28;20031;-74
2020/12/10 05:26:22;;;;;;;87.45;32.92;;;-1.40;99.90;;;;;;4197163;28;20127;-74
2020/12/10 05:28:24;;;;;;;94.10;36.30;;;-1.30;99.90;;;;;;4215057;28;20454;-74
2020/12/10 05:30:25;;;;;;;94.10;33.45;;;-1.30;99.90;;;;;;4214705;28;20119;-74
2020/12/10 05:32:37;;;;;;;99.53;35.22;;;-1.30;99.90;;;;;;4197139;28;20086;-74
2020/12/10 05:34:37;;;;;;;92.68;33.50;;;-1.30;99.90;;;;;;4197184;28;20040;-74
2020/12/10 05:36:44;;;;;;;93.10;36.75;;;-1.30;99.90;;;;;;4196871;28;20104;-73
2020/12/10 05:39:04;;;;;;;108.60;35.63;;;-1.30;99.90;;;;;;4194418;28;20052;-74
2020/12/10 05:41:18;;;;;;;112.57;36.00;;;-1.20;99.90;;;;;;4214715;28;20032;-74
2020/12/10 05:43:22;;;;;;;97.63;36.42;;;-1.20;99.90;;;;;;4211812;28;20104;-74
2020/12/10 05:45:23;;;;;;;82.65;34.55;;;-1.20;99.90;;;;;;4201986;28;20387;-73
2020/12/10 05:47:28;;;;;;;99.47;35.80;;;-1.10;99.90;;;;;;4196164;28;20090;-74
2020/12/10 05:49:29;;;;;;;96.90;35.28;;;-1.10;99.90;;;;;;4189583;28;20063;-73
2020/12/10 05:51:43;;;;;;;89.90;34.03;;;-1.10;99.90;;;;;;4199447;28;20400;-74
2020/12/10 05:53:45;;;;;;;99.53;33.35;;;-1.10;99.90;;;;;;4197801;28;20084;-74
2020/12/10 05:55:48;;;;;;;87.15;32.03;;;-1.10;99.90;;;;;;4197642;28;20367;-74
2020/12/10 05:57:50;;;;;;;88.00;31.90;;;-1.20;99.90;;;;;;4214190;28;20020;-74
2020/12/10 05:59:51;;;;;;;87.13;32.65;;;-1.20;99.90;;;;;;4212675;28;20050;-74
2020/12/10 06:01:56;;;;;;;86.40;32.78;;;-1.10;99.90;;;;;;4213640;28;20036;-74
2020/12/10 06:03:57;;;;;;;90.00;33.20;;;-1.10;99.90;;;;;;4187297;28;20032;-74
2020/12/10 06:06:01;;;;;;;94.60;31.08;;;-1.10;99.90;;;;;;4204815;28;20024;-74
2020/12/10 06:08:06;;;;;;;76.90;30.52;;;-1.10;99.90;;;;;;4197601;28;20093;-75
2020/12/10 06:10:07;;;;;;;83.32;31.27;;;-1.10;99.90;;;;;;4195832;28;20028;-74
2020/12/10 06:12:08;;;;;;;91.90;31.95;;;-1.10;99.90;;;;;;4197961;28;20017;-74
2020/12/10 06:14:09;;;;;;;89.32;34.30;;;-1.10;99.90;;;;;;4187202;28;20069;-74
2020/12/10 06:16:17;;;;;;;95.38;32.85;;;-1.00;99.90;;;;;;4207074;28;20522;-74
2020/12/10 06:18:18;;;;;;;92.53;33.45;;;-1.00;99.90;;;;;;4197987;28;20028;-74
2020/12/10 06:20:32;;;;;;;97.75;34.10;;;-1.00;99.90;;;;;;4197575;28;20124;-74
2020/12/10 06:22:36;;;;;;;;;;;-1.10;99.90;;;;;;4198103;28;20422;-74
2020/12/10 06:24:37;;;;;;;85.72;29.27;;;-1.10;99.90;;;;;;4188863;28;19912;-76
2020/12/10 06:26:38;;;;;;;82.50;31.27;;;-1.10;99.90;;;;;;4204611;28;20024;-73
2020/12/10 06:28:38;;;;;;;99.32;33.90;;;-1.10;99.90;;;;;;4194570;28;20163;-73
2020/12/10 06:30:39;;;;;;;81.28;32.75;;;-1.10;99.90;;;;;;4213518;28;20032;-73
2020/12/10 06:32:50;;;;;;;83.30;34.22;;;-1.10;99.90;;;;;;4196867;28;20028;-73
2020/12/10 06:34:57;;;;;;;91.60;35.15;;;-1.10;99.90;;;;;;4189275;28;20413;-73
2020/12/10 06:37:20;;;;;;;83.15;32.40;;;-1.10;99.90;;;;;;4203269;28;20527;-73
2020/12/10 06:39:36;;;;;;;91.35;34.83;;;-1.10;99.90;;;;;;4179053;28;20071;-74
2020/12/10 06:41:59;;;;;;;102.10;35.80;;;-1.00;99.90;;;;;;4194620;28;20479;-74
2020/12/10 06:43:59;;;;;;;94.65;35.00;;;-1.00;99.90;;;;;;4182212;28;20441;-73
2020/12/10 06:46:00;;;;;;;92.93;35.03;;;-1.00;99.90;;;;;;4180941;28;20028;-73
2020/12/10 06:48:17;;;;;;;101.85;36.97;;;-1.00;99.90;;;;;;4188278;28;20020;-73
2020/12/10 06:50:26;;;;;;;102.43;38.95;;;-1.00;99.90;;;;;;4183550;28;20036;-72
2020/12/10 06:52:26;;;;;;;97.05;38.03;;;-1.00;99.90;;;;;;4193767;28;20464;-73
2020/12/10 06:54:27;;;;;;;100.32;36.55;;;-1.00;99.90;;;;;;4195681;28;20032;-73
2020/12/10 06:56:31;;;;;;;100.30;37.72;;;-1.00;99.90;;;;;;4192038;28;20021;-73
2020/12/10 06:58:38;;;;;;;103.45;40.03;;;-1.00;99.90;;;;;;4196825;28;20024;-72
2020/12/10 07:01:01;;;;;;;96.97;38.00;;;-1.00;99.90;;;;;;4195605;28;20091;-73
2020/12/10 07:03:21;;;;;;;107.07;38.20;;;-1.00;99.90;;;;;;4195686;28;20542;-73
2020/12/10 07:05:31;;;;;;;106.55;39.80;;;-1.00;99.90;;;;;;4180828;28;20075;-73
2020/12/10 07:07:32;;;;;;;99.35;37.78;;;-1.00;99.90;;;;;;4182981;28;20029;-73
2020/12/10 07:09:46;;;;;;;102.95;37.22;;;-1.00;99.90;;;;;;4196435;28;20025;-73
2020/12/10 07:11:46;;;;;;;89.53;36.35;;;-1.00;99.90;;;;;;4180376;28;20552;-73
2020/12/10 07:13:47;;;;;;;107.57;37.33;;;-1.00;99.90;;;;;;4189609;28;20020;-73
2020/12/10 07:15:50;;;;;;;98.18;39.60;;;-1.10;99.90;;;;;;4183908;28;20354;-73
2020/12/10 07:17:51;;;;;;;;;;;-1.00;99.90;;;;;;4183347;28;20074;-73
2020/12/10 07:19:52;;;;;;;92.15;37.00;;;-1.00;99.90;;;;;;4190825;28;19916;-73
2020/12/10 07:21:52;;;;;;;108.55;37.67;;;-1.00;99.90;;;;;;4183212;28;20037;-73
2020/12/10 07:23:53;;;;;;;100.85;39.08;;;-1.00;99.90;;;;;;4208821;28;20040;-73
2020/12/10 07:25:54;;;;;;;107.18;39.80;;;-1.00;99.90;;;;;;4194256;28;20112;-73
2020/12/10 07:27:55;;;;;;;104.53;39.50;;;-1.00;99.90;;;;;;4194205;28;20491;-73
2020/12/10 07:29:56;;;;;;;108.78;39.67;;;-1.00;99.90;;;;;;4193674;28;20028;-73
2020/12/10 07:31:56;;;;;;;113.97;41.13;;;-1.00;99.90;;;;;;4193829;28;20067;-72
2020/12/10 07:33:58;;;;;;;105.68;38.47;;;-1.00;99.90;;;;;;4193991;28;20025;-72
2020/12/10 07:36:06;;;;;;;108.63;41.22;;;-1.00;99.90;;;;;;4191990;28;20116;-72
2020/12/10 07:38:14;;;;;;;102.55;40.08;;;-1.00;99.90;;;;;;4191334;28;20154;-72
2020/12/10 07:40:17;;;;;;;103.63;38.75;;;-1.00;99.90;;;;;;4188760;28;20017;-72
2020/12/10 07:42:20;;;;;;;109.20;39.63;;;-1.10;99.90;;;;;;4200386;28;20089;-73
2020/12/10 07:44:30;;;;;;;118.65;40.65;;;-1.10;99.90;;;;;;4211410;28;20039;-73
2020/12/10 07:46:38;;;;;;;106.95;41.83;;;-1.00;99.90;;;;;;4195728;28;20036;-72
2020/12/10 07:48:39;;;;;;;129.15;45.65;;;-1.00;99.90;;;;;;4200733;28;20032;-72
2020/12/10 07:50:45;;;;;;;116.85;42.92;;;-1.00;99.90;;;;;;4191847;28;20115;-72
2020/12/10 07:52:47;;;;;;;109.32;43.92;;;-1.00;99.90;;;;;;4199677;28;20024;-72
2020/12/10 07:54:57;;;;;;;121.22;43.72;;;-1.00;99.90;;;;;;4194457;28;20024;-75
2020/12/10 07:57:06;;;;;;;116.80;41.85;;;-1.00;99.90;;;;;;4187787;28;20029;-72
2020/12/10 07:59:21;;;;;;;118.45;42.13;;;-1.00;99.90;;;;;;4204189;28;20028;-74
2020/12/10 08:01:23;;;;;;;114.25;41.53;;;-1.00;99.90;;;;;;4208514;28;20092;-72
2020/12/10 08:03:33;;;;;;;119.82;42.67;;;-0.90;99.90;;;;;;4191961;28;20549;-74
2020/12/10 08:05:34;;;;;;;120.00;45.65;;;-0.90;99.90;;;;;;4203727;28;20024;-74
2020/12/10 08:07:35;;;;;;;119.88;45.15;;;-0.80;99.90;;;;;;4210113;28;20056;-72
2020/12/10 08:09:36;;;;;;;110.82;45.28;;;-0.80;99.90;;;;;;4190905;28;20037;-73
2020/12/10 08:11:54;;;;;;;123.18;44.70;;;-0.80;99.90;;;;;;4193704;28;20111;-74
2020/12/10 08:14:07;;;;;;;116.05;43.35;;;-0.80;99.90;;;;;;4210416;28;20020;-74
2020/12/10 08:16:08;;;;;;;135.40;45.22;;;-0.80;99.90;;;;;;4210176;28;20024;-72
2020/12/10 08:18:14;;;;;;;120.25;44.65;;;-0.70;99.90;;;;;;4211639;28;20020;-74
2020/12/10 08:20:17;;;;;;;119.35;42.58;;;-0.70;99.90;;;;;;4204489;28;20024;-74
2020/12/10 08:22:19;;;;;;;123.57;44.42;;;-0.70;99.90;;;;;;4201786;28;20024;-75
2020/12/10 08:24:44;;;;;;;118.78;46.05;;;-0.70;99.90;;;;;;4198029;28;20035;-75
2020/12/10 08:26:56;;;;;;;;;;;-0.70;99.90;;;;;;4194045;28;20036;-74
2020/12/10 08:28:57;;;;;;;129.45;42.28;;;-0.70;99.90;;;;;;4197025;28;20342;-74
2020/12/10 08:30:58;;;;;;;102.95;42.42;;;-0.70;99.90;;;;;;4198451;28;20031;-72
2020/12/10 08:33:00;;;;;;;116.25;44.42;;;-0.60;99.90;;;;;;4198355;28;20094;-72
2020/12/10 08:35:08;;;;;;;118.38;42.50;;;-0.60;99.90;;;;;;4193469;28;20029;-74
2020/12/10 08:37:10;;;;;;;125.07;43.72;;;-0.50;99.90;;;;;;4206041;28;20391;-74
2020/12/10 08:39:11;;;;;;;121.85;42.88;;;-0.50;99.90;;;;;;4193645;28;20029;-74
2020/12/10 08:41:11;;;;;;;123.70;45.63;;;-0.50;99.90;;;;;;4208394;28;20390;-74
2020/12/10 08:43:14;;;;;;;124.75;46.78;;;-0.40;99.90;;;;;;4200677;28;20037;-73
2020/12/10 08:45:43;;;;;;;113.47;43.65;;;-0.30;99.90;;;;;;4203504;28;20016;-74
2020/12/10 08:47:47;;;;;;;124.45;45.03;;;-0.30;99.90;;;;;;4194903;28;20032;-74
2020/12/10 08:50:05;;;;;;;115.57;42.00;;;-0.20;99.90;;;;;;4210828;28;20028;-74
2020/12/10 08:52:05;;;;;;;103.82;40.13;;;-0.20;99.90;;;;;;4195491;28;20407;-74
2020/12/10 08:54:06;;;;;;;114.15;41.67;;;-0.20;99.90;;;;;;4190045;28;20029;-74
2020/12/10 08:56:21;;;;;;;121.60;45.28;;;-0.10;99.90;;;;;;4185479;28;20710;-74
2020/12/10 08:58:23;;;;;;;112.65;43.47;;;-0.10;99.90;;;;;;4186114;28;20463;-74
2020/12/10 09:00:24;;;;;;;112.38;43.38;;;-0.10;99.90;;;;;;4193317;28;20040;-74
2020/12/10 09:02:24;;;;;;;115.88;43.75;;;0.00;99.90;;;;;;4190816;28;20036;-74
2020/12/10 09:04:25;;;;;;;112.32;43.60;;;0.00;99.90;;;;;;4190530;28;20534;-74
2020/12/10 09:06:36;;;;;;;104.07;41.72;;;0.10;99.90;;;;;;4193663;28;20036;-74
2020/12/10 09:08:37;;;;;;;103.60;43.80;;;0.20;99.90;;;;;;4196802;28;20078;-74
2020/12/10 09:10:37;;;;;;;99.30;40.60;;;0.20;99.90;;;;;;4195176;28;20119;-74
2020/12/10 09:12:38;;;;;;;96.60;39.35;;;0.30;99.90;;;;;;4196974;28;20387;-74
2020/12/10 09:14:39;;;;;;;104.55;39.95;;;0.30;99.90;;;;;;4194401;28;20661;-74
2020/12/10 09:16:39;;;;;;;102.30;39.88;;;0.30;99.90;;;;;;4198204;28;20476;-74
2020/12/10 09:18:41;;;;;;;101.07;40.78;;;0.40;99.90;;;;;;4193410;28;20051;-74
2020/12/10 09:20:41;;;;;;;103.50;42.47;;;0.40;99.90;;;;;;4186927;28;20488;-75
2020/12/10 09:22:42;;;;;;;97.38;41.28;;;0.40;99.90;;;;;;4189836;28;20037;-74
2020/12/10 09:24:43;;;;;;;107.75;40.08;;;0.40;99.90;;;;;;4204113;28;20123;-74
2020/12/10 09:26:44;;;;;;;95.15;38.63;;;0.40;99.90;;;;;;4202290;28;20028;-74
2020/12/10 09:28:44;;;;;;;100.68;38.10;;;0.40;99.90;;;;;;4204155;28;20103;-74
2020/12/10 09:30:45;;;;;;;96.28;43.80;;;0.40;99.90;;;;;;4206644;28;20432;-74
2020/12/10 09:32:46;;;;;;;94.47;40.55;;;0.40;99.90;;;;;;4210086;28;20381;-74
2020/12/10 09:34:47;;;;;;;96.03;40.65;;;0.30;99.90;;;;;;4187487;28;20434;-74
2020/12/10 09:36:47;;;;;;;95.90;39.35;;;0.30;99.90;;;;;;4196097;28;20412;-74
2020/12/10 09:38:48;;;;;;;96.47;40.88;;;0.30;99.90;;;;;;4208237;28;20024;-74
2020/12/10 09:40:48;;;;;;;90.47;38.40;;;0.30;99.90;;;;;;4196240;28;20041;-74
2020/12/10 09:42:50;;;;;;;99.85;40.42;;;0.30;99.90;;;;;;4208626;28;20050;-74
2020/12/10 09:44:51;;;;;;;93.28;38.25;;;0.30;99.90;;;;;;4196156;28;20033;-74
2020/12/10 09:46:52;;;;;;;92.35;38.03;;;0.30;99.90;;;;;;4193401;28;20063;-74
2020/12/10 09:48:52;;;;;;;84.30;37.13;;;0.40;99.90;;;;;;4206081;28;20028;-74
2020/12/10 09:50:53;;;;;;;89.03;35.80;;;0.40;99.90;;;;;;4208489;28;20025;-74
2020/12/10 09:53:08;;;;;;;92.40;37.55;;;0.40;99.90;;;;;;4196382;28;20550;-74
2020/12/10 09:55:24;;;;;;;88.25;37.63;;;0.40;99.90;;;;;;4201634;28;20028;-74
2020/12/10 09:59:31;;;;;;;91.80;37.40;;;0.30;99.90;;;;;;4204958;28;20369;-73
2020/12/10 10:01:32;;;;;;;;;;;0.30;99.90;;;;;;4186517;28;20067;-73
2020/12/10 10:03:33;;;;;;;85.65;36.75;;;0.30;99.90;;;;;;4188358;28;19912;-73
2020/12/10 10:05:34;;;;;;;100.03;38.25;;;0.30;99.90;;;;;;4199292;28;20104;-75
2020/12/10 10:07:37;;;;;;;91.68;38.17;;;0.30;99.90;;;;;;4182043;28;20071;-73
2020/12/10 10:09:39;;;;;;;85.38;36.50;;;0.30;99.90;;;;;;4191297;28;20040;-72
2020/12/10 10:11:39;;;;;;;82.80;35.72;;;0.30;99.90;;;;;;4212360;28;20028;-74
2020/12/10 10:13:40;;;;;;;85.68;37.78;;;0.40;99.90;;;;;;4180680;28;20537;-72
2020/12/10 10:15:42;;;;;;;88.93;36.95;;;0.40;99.90;;;;;;4199991;28;20082;-73
2020/12/10 10:17:43;;;;;;;85.55;39.00;;;0.60;99.90;;;;;;4203322;28;20514;-73
2020/12/10 10:19:44;;;;;;;78.60;35.22;;;0.70;99.90;;;;;;4194021;28;20037;-73
2020/12/10 10:21:44;;;;;;;81.95;35.85;;;0.80;99.90;;;;;;4194790;28;20567;-73
2020/12/10 10:23:45;;;;;;;81.57;35.17;;;1.00;99.90;;;;;;4208768;28;20479;-73
2020/12/10 10:25:47;;;;;;;85.75;38.92;;;1.10;99.90;;;;;;4210867;28;20085;-73